sensor_id;sensor_type;location;lat;lon;timestamp;P1;durP1;ratioP1;P2;durP2;ratioP2
9860;SDS011;4969;52.304;4.968;2022-07-24T00:02:19;13.93;;;12.73;;
9860;SDS011;4969;52.304;4.968;2022-07-24T00:04:46;13.85;;;12.65;;
9860;SDS011;4969;52.304;4.968;2022-07-24T00:07:12;13.60;;;12.38;;
9860;SDS011;4969;52.304;4.968;2022-07-24T00:09:40;13.40;;;12.00;;
9860;SDS011;4969;52.304;4.968;2022-07-24T00:12:07;14.38;;;13.18;;
9860;SDS011;4969;52.304;4.968;2022-07-24T00:14:35;13.45;;;12.35;;
9860;SDS011;4969;52.304;4.968;2022-07-24T00:17:01;14.65;;;13.25;;
9860;SDS011;4969;52.304;4.968;2022-07-24T00:19:28;15.48;;;14.05;;
9860;SDS011;4969;52.304;4.968;2022-07-24T00:21:55;13.77;;;12.65;;
9860;SDS011;4969;52.304;4.968;2022-07-24T00:24:22;13.73;;;12.55;;
9860;SDS011;4969;52.304;4.968;2022-07-24T00:26:50;14.25;;;13.05;;
9860;SDS011;4969;52.304;4.968;2022-07-24T00:29:16;13.48;;;12.43;;
9860;SDS011;4969;52.304;4.968;2022-07-24T00:31:43;14.23;;;13.02;;
9860;SDS011;4969;52.304;4.968;2022-07-24T00:34:10;13.73;;;12.63;;
9860;SDS011;4969;52.304;4.968;2022-07-24T00:36:36;13.70;;;12.57;;
9860;SDS011;4969;52.304;4.968;2022-07-24T00:39:03;13.13;;;12.02;;
9860;SDS011;4969;52.304;4.968;2022-07-24T00:41:29;18.13;;;16.50;;
9860;SDS011;4969;52.304;4.968;2022-07-24T00:44:04;20.73;;;19.00;;
9860;SDS011;4969;52.304;4.968;2022-07-24T00:46:33;20.65;;;18.75;;
9860;SDS011;4969;52.304;4.968;2022-07-24T00:49:00;22.67;;;20.63;;
9860;SDS011;4969;52.304;4.968;2022-07-24T00:51:26;22.63;;;20.52;;
9860;SDS011;4969;52.304;4.968;2022-07-24T00:53:53;21.30;;;19.13;;
9860;SDS011;4969;52.304;4.968;2022-07-24T00:56:20;21.58;;;19.58;;
9860;SDS011;4969;52.304;4.968;2022-07-24T00:58:46;22.55;;;20.50;;
9860;SDS011;4969;52.304;4.968;2022-07-24T01:01:15;23.23;;;21.02;;
9860;SDS011;4969;52.304;4.968;2022-07-24T01:03:43;24.08;;;21.83;;
9860;SDS011;4969;52.304;4.968;2022-07-24T01:06:10;22.50;;;20.40;;
9860;SDS011;4969;52.304;4.968;2022-07-24T01:08:37;22.33;;;20.23;;
9860;SDS011;4969;52.304;4.968;2022-07-24T01:11:04;23.55;;;21.25;;
9860;SDS011;4969;52.304;4.968;2022-07-24T01:13:31;23.45;;;21.40;;
9860;SDS011;4969;52.304;4.968;2022-07-24T01:15:58;24.15;;;21.80;;
9860;SDS011;4969;52.304;4.968;2022-07-24T01:18:26;23.33;;;21.13;;
9860;SDS011;4969;52.304;4.968;2022-07-24T01:20:54;24.58;;;22.10;;
9860;SDS011;4969;52.304;4.968;2022-07-24T01:23:21;23.48;;;21.27;;
9860;SDS011;4969;52.304;4.968;2022-07-24T01:25:48;23.77;;;21.48;;
9860;SDS011;4969;52.304;4.968;2022-07-24T01:28:15;24.17;;;21.73;;
9860;SDS011;4969;52.304;4.968;2022-07-24T01:30:41;23.55;;;21.15;;
9860;SDS011;4969;52.304;4.968;2022-07-24T01:33:08;23.42;;;21.17;;
9860;SDS011;4969;52.304;4.968;2022-07-24T01:35:34;24.60;;;22.27;;
9860;SDS011;4969;52.304;4.968;2022-07-24T01:38:02;24.73;;;22.27;;
9860;SDS011;4969;52.304;4.968;2022-07-24T01:40:29;25.30;;;22.98;;
9860;SDS011;4969;52.304;4.968;2022-07-24T01:42:55;26.52;;;23.83;;
9860;SDS011;4969;52.304;4.968;2022-07-24T01:45:22;26.77;;;24.23;;
9860;SDS011;4969;52.304;4.968;2022-07-24T01:47:49;26.30;;;23.80;;
9860;SDS011;4969;52.304;4.968;2022-07-24T01:50:15;27.35;;;24.60;;
9860;SDS011;4969;52.304;4.968;2022-07-24T01:52:42;26.85;;;24.30;;
9860;SDS011;4969;52.304;4.968;2022-07-24T01:55:10;26.55;;;23.95;;
9860;SDS011;4969;52.304;4.968;2022-07-24T01:57:37;27.48;;;24.45;;
9860;SDS011;4969;52.304;4.968;2022-07-24T02:00:04;27.70;;;24.95;;
9860;SDS011;4969;52.304;4.968;2022-07-24T02:02:34;26.88;;;24.38;;
9860;SDS011;4969;52.304;4.968;2022-07-24T02:05:00;27.38;;;24.83;;
9860;SDS011;4969;52.304;4.968;2022-07-24T02:07:27;27.83;;;24.98;;
9860;SDS011;4969;52.304;4.968;2022-07-24T02:09:53;27.45;;;24.88;;
9860;SDS011;4969;52.304;4.968;2022-07-24T02:12:21;27.05;;;24.55;;
9860;SDS011;4969;52.304;4.968;2022-07-24T02:14:47;29.65;;;26.55;;
9860;SDS011;4969;52.304;4.968;2022-07-24T02:17:14;29.58;;;26.63;;
9860;SDS011;4969;52.304;4.968;2022-07-24T02:19:40;31.50;;;28.02;;
9860;SDS011;4969;52.304;4.968;2022-07-24T02:22:07;31.42;;;28.08;;
9860;SDS011;4969;52.304;4.968;2022-07-24T02:24:33;32.65;;;28.85;;
9860;SDS011;4969;52.304;4.968;2022-07-24T02:27:00;32.63;;;28.95;;
9860;SDS011;4969;52.304;4.968;2022-07-24T02:29:28;32.92;;;29.20;;
9860;SDS011;4969;52.304;4.968;2022-07-24T02:31:54;32.20;;;28.80;;
9860;SDS011;4969;52.304;4.968;2022-07-24T02:34:21;34.50;;;30.75;;
9860;SDS011;4969;52.304;4.968;2022-07-24T02:36:48;33.67;;;30.05;;
9860;SDS011;4969;52.304;4.968;2022-07-24T02:39:14;33.97;;;30.38;;
9860;SDS011;4969;52.304;4.968;2022-07-24T02:41:41;35.72;;;31.90;;
9860;SDS011;4969;52.304;4.968;2022-07-24T02:44:07;37.40;;;33.42;;
9860;SDS011;4969;52.304;4.968;2022-07-24T02:46:35;36.38;;;32.55;;
9860;SDS011;4969;52.304;4.968;2022-07-24T02:49:01;36.78;;;32.67;;
9860;SDS011;4969;52.304;4.968;2022-07-24T02:51:28;38.10;;;34.00;;
9860;SDS011;4969;52.304;4.968;2022-07-24T02:53:55;37.92;;;33.97;;
9860;SDS011;4969;52.304;4.968;2022-07-24T02:56:21;36.60;;;32.65;;
9860;SDS011;4969;52.304;4.968;2022-07-24T02:58:48;35.80;;;32.17;;
9860;SDS011;4969;52.304;4.968;2022-07-24T03:01:14;35.28;;;31.63;;
9860;SDS011;4969;52.304;4.968;2022-07-24T03:03:42;36.60;;;32.90;;
9860;SDS011;4969;52.304;4.968;2022-07-24T03:06:08;35.25;;;31.67;;
9860;SDS011;4969;52.304;4.968;2022-07-24T03:08:35;34.35;;;30.85;;
9860;SDS011;4969;52.304;4.968;2022-07-24T03:11:02;35.03;;;31.38;;
9860;SDS011;4969;52.304;4.968;2022-07-24T03:13:28;33.63;;;29.98;;
9860;SDS011;4969;52.304;4.968;2022-07-24T03:15:55;32.88;;;29.35;;
9860;SDS011;4969;52.304;4.968;2022-07-24T03:18:21;31.77;;;28.50;;
9860;SDS011;4969;52.304;4.968;2022-07-24T03:20:49;35.10;;;28.45;;
9860;SDS011;4969;52.304;4.968;2022-07-24T03:23:16;32.60;;;29.35;;
9860;SDS011;4969;52.304;4.968;2022-07-24T03:25:42;31.38;;;28.27;;
9860;SDS011;4969;52.304;4.968;2022-07-24T03:28:09;35.10;;;29.77;;
9860;SDS011;4969;52.304;4.968;2022-07-24T03:30:36;30.85;;;27.63;;
9860;SDS011;4969;52.304;4.968;2022-07-24T03:33:02;32.38;;;28.92;;
9860;SDS011;4969;52.304;4.968;2022-07-24T03:35:29;29.55;;;26.45;;
9860;SDS011;4969;52.304;4.968;2022-07-24T03:37:57;29.30;;;26.35;;
9860;SDS011;4969;52.304;4.968;2022-07-24T03:40:23;29.35;;;26.33;;
9860;SDS011;4969;52.304;4.968;2022-07-24T03:42:50;27.50;;;24.63;;
9860;SDS011;4969;52.304;4.968;2022-07-24T03:45:16;25.83;;;23.23;;
9860;SDS011;4969;52.304;4.968;2022-07-24T03:47:43;26.20;;;23.40;;
9860;SDS011;4969;52.304;4.968;2022-07-24T03:50:10;25.08;;;22.52;;
9860;SDS011;4969;52.304;4.968;2022-07-24T03:52:37;24.80;;;22.25;;
9860;SDS011;4969;52.304;4.968;2022-07-24T03:55:05;23.80;;;21.20;;
9860;SDS011;4969;52.304;4.968;2022-07-24T03:57:32;24.02;;;21.30;;
9860;SDS011;4969;52.304;4.968;2022-07-24T03:59:59;24.08;;;21.67;;
9860;SDS011;4969;52.304;4.968;2022-07-24T04:02:25;24.33;;;21.92;;
9860;SDS011;4969;52.304;4.968;2022-07-24T04:04:52;25.52;;;22.98;;
9860;SDS011;4969;52.304;4.968;2022-07-24T04:07:18;25.80;;;23.23;;
9860;SDS011;4969;52.304;4.968;2022-07-24T04:09:45;27.00;;;24.10;;
9860;SDS011;4969;52.304;4.968;2022-07-24T04:12:13;28.20;;;25.20;;
9860;SDS011;4969;52.304;4.968;2022-07-24T04:14:39;29.23;;;26.13;;
9860;SDS011;4969;52.304;4.968;2022-07-24T04:17:06;31.25;;;27.75;;
9860;SDS011;4969;52.304;4.968;2022-07-24T04:19:32;35.15;;;28.20;;
9860;SDS011;4969;52.304;4.968;2022-07-24T04:21:59;30.58;;;27.40;;
9860;SDS011;4969;52.304;4.968;2022-07-24T04:24:25;33.50;;;27.92;;
9860;SDS011;4969;52.304;4.968;2022-07-24T04:26:52;31.30;;;28.00;;
9860;SDS011;4969;52.304;4.968;2022-07-24T04:29:20;31.58;;;26.73;;
9860;SDS011;4969;52.304;4.968;2022-07-24T04:31:47;32.15;;;28.73;;
9860;SDS011;4969;52.304;4.968;2022-07-24T04:34:13;32.65;;;28.95;;
9860;SDS011;4969;52.304;4.968;2022-07-24T04:36:40;25.15;;;22.60;;
9860;SDS011;4969;52.304;4.968;2022-07-24T04:39:06;25.92;;;23.33;;
9860;SDS011;4969;52.304;4.968;2022-07-24T04:41:33;26.02;;;23.45;;
9860;SDS011;4969;52.304;4.968;2022-07-24T04:43:59;23.20;;;20.95;;
9860;SDS011;4969;52.304;4.968;2022-07-24T04:46:27;24.13;;;21.52;;
9860;SDS011;4969;52.304;4.968;2022-07-24T04:48:54;24.33;;;21.65;;
9860;SDS011;4969;52.304;4.968;2022-07-24T04:51:20;21.40;;;19.35;;
9860;SDS011;4969;52.304;4.968;2022-07-24T04:53:47;22.88;;;20.58;;
9860;SDS011;4969;52.304;4.968;2022-07-24T04:56:17;21.60;;;18.92;;
9860;SDS011;4969;52.304;4.968;2022-07-24T04:58:44;22.10;;;19.88;;
9860;SDS011;4969;52.304;4.968;2022-07-24T05:01:11;20.77;;;18.60;;
9860;SDS011;4969;52.304;4.968;2022-07-24T05:03:39;19.42;;;17.27;;
9860;SDS011;4969;52.304;4.968;2022-07-24T05:06:06;18.77;;;16.77;;
9860;SDS011;4969;52.304;4.968;2022-07-24T05:08:33;22.70;;;17.48;;
9860;SDS011;4969;52.304;4.968;2022-07-24T05:10:59;17.70;;;15.93;;
9860;SDS011;4969;52.304;4.968;2022-07-24T05:13:27;19.55;;;15.95;;
9860;SDS011;4969;52.304;4.968;2022-07-24T05:15:53;19.15;;;17.13;;
9860;SDS011;4969;52.304;4.968;2022-07-24T05:18:20;17.15;;;15.40;;
9860;SDS011;4969;52.304;4.968;2022-07-24T05:20:48;17.20;;;15.40;;
9860;SDS011;4969;52.304;4.968;2022-07-24T05:23:15;17.08;;;15.20;;
9860;SDS011;4969;52.304;4.968;2022-07-24T05:25:41;28.40;;;15.90;;
9860;SDS011;4969;52.304;4.968;2022-07-24T05:28:08;15.20;;;13.60;;
9860;SDS011;4969;52.304;4.968;2022-07-24T05:30:34;15.07;;;13.70;;
9860;SDS011;4969;52.304;4.968;2022-07-24T05:33:01;16.38;;;14.50;;
9860;SDS011;4969;52.304;4.968;2022-07-24T05:35:27;16.48;;;14.77;;
9860;SDS011;4969;52.304;4.968;2022-07-24T05:37:55;15.23;;;13.82;;
9860;SDS011;4969;52.304;4.968;2022-07-24T05:40:22;15.23;;;13.70;;
9860;SDS011;4969;52.304;4.968;2022-07-24T05:42:48;15.15;;;13.65;;
9860;SDS011;4969;52.304;4.968;2022-07-24T05:45:15;16.88;;;14.70;;
9860;SDS011;4969;52.304;4.968;2022-07-24T05:47:41;16.45;;;13.43;;
9860;SDS011;4969;52.304;4.968;2022-07-24T05:50:09;14.85;;;13.25;;
9860;SDS011;4969;52.304;4.968;2022-07-24T05:52:37;14.85;;;13.38;;
9860;SDS011;4969;52.304;4.968;2022-07-24T05:55:06;13.98;;;12.57;;
9860;SDS011;4969;52.304;4.968;2022-07-24T05:57:33;13.93;;;12.32;;
9860;SDS011;4969;52.304;4.968;2022-07-24T06:00:00;12.25;;;11.07;;
9860;SDS011;4969;52.304;4.968;2022-07-24T06:02:26;15.10;;;12.02;;
9860;SDS011;4969;52.304;4.968;2022-07-24T06:04:53;14.27;;;11.10;;
9860;SDS011;4969;52.304;4.968;2022-07-24T06:07:19;12.10;;;9.23;;
9860;SDS011;4969;52.304;4.968;2022-07-24T06:09:46;10.88;;;9.77;;
9860;SDS011;4969;52.304;4.968;2022-07-24T06:12:14;12.57;;;9.35;;
9860;SDS011;4969;52.304;4.968;2022-07-24T06:14:40;8.80;;;7.93;;
9860;SDS011;4969;52.304;4.968;2022-07-24T06:17:07;9.57;;;7.78;;
9860;SDS011;4969;52.304;4.968;2022-07-24T06:19:33;8.05;;;7.40;;
9860;SDS011;4969;52.304;4.968;2022-07-24T06:22:00;9.50;;;7.22;;
9860;SDS011;4969;52.304;4.968;2022-07-24T06:24:26;7.72;;;6.53;;
9860;SDS011;4969;52.304;4.968;2022-07-24T06:26:53;6.93;;;6.32;;
9860;SDS011;4969;52.304;4.968;2022-07-24T06:29:21;6.07;;;5.47;;
9860;SDS011;4969;52.304;4.968;2022-07-24T06:31:47;6.38;;;5.35;;
9860;SDS011;4969;52.304;4.968;2022-07-24T06:34:14;6.03;;;4.95;;
9860;SDS011;4969;52.304;4.968;2022-07-24T06:36:40;6.32;;;5.50;;
9860;SDS011;4969;52.304;4.968;2022-07-24T06:39:07;5.50;;;5.00;;
9860;SDS011;4969;52.304;4.968;2022-07-24T06:41:34;5.72;;;5.22;;
9860;SDS011;4969;52.304;4.968;2022-07-24T06:44:00;4.75;;;4.35;;
9860;SDS011;4969;52.304;4.968;2022-07-24T06:46:28;5.55;;;4.55;;
9860;SDS011;4969;52.304;4.968;2022-07-24T06:48:55;6.05;;;4.30;;
9860;SDS011;4969;52.304;4.968;2022-07-24T06:51:21;4.20;;;3.80;;
9860;SDS011;4969;52.304;4.968;2022-07-24T06:53:48;5.40;;;4.40;;
9860;SDS011;4969;52.304;4.968;2022-07-24T06:56:14;11.10;;;9.88;;
9860;SDS011;4969;52.304;4.968;2022-07-24T06:58:41;5.70;;;5.20;;
9860;SDS011;4969;52.304;4.968;2022-07-24T07:01:08;8.02;;;7.28;;
9860;SDS011;4969;52.304;4.968;2022-07-24T07:03:35;7.13;;;5.85;;
9860;SDS011;4969;52.304;4.968;2022-07-24T07:06:02;7.10;;;5.88;;
9860;SDS011;4969;52.304;4.968;2022-07-24T07:08:29;5.38;;;4.88;;
9860;SDS011;4969;52.304;4.968;2022-07-24T07:10:56;5.43;;;4.95;;
9860;SDS011;4969;52.304;4.968;2022-07-24T07:13:22;7.93;;;5.55;;
9860;SDS011;4969;52.304;4.968;2022-07-24T07:15:49;7.93;;;6.03;;
9860;SDS011;4969;52.304;4.968;2022-07-24T07:18:15;6.70;;;5.55;;
9860;SDS011;4969;52.304;4.968;2022-07-24T07:20:43;6.63;;;5.82;;
9860;SDS011;4969;52.304;4.968;2022-07-24T07:23:10;4.97;;;4.47;;
9860;SDS011;4969;52.304;4.968;2022-07-24T07:25:37;6.93;;;5.15;;
9860;SDS011;4969;52.304;4.968;2022-07-24T07:28:03;5.03;;;4.30;;
9860;SDS011;4969;52.304;4.968;2022-07-24T07:30:30;5.95;;;5.25;;
9860;SDS011;4969;52.304;4.968;2022-07-24T07:32:56;7.80;;;5.03;;
9860;SDS011;4969;52.304;4.968;2022-07-24T07:35:23;7.57;;;5.13;;
9860;SDS011;4969;52.304;4.968;2022-07-24T07:37:51;5.88;;;4.78;;
9860;SDS011;4969;52.304;4.968;2022-07-24T07:40:17;6.18;;;5.68;;
9860;SDS011;4969;52.304;4.968;2022-07-24T07:42:44;5.05;;;4.55;;
9860;SDS011;4969;52.304;4.968;2022-07-24T07:45:10;6.97;;;5.43;;
9860;SDS011;4969;52.304;4.968;2022-07-24T07:47:37;5.13;;;4.47;;
9860;SDS011;4969;52.304;4.968;2022-07-24T07:50:04;5.85;;;5.20;;
9860;SDS011;4969;52.304;4.968;2022-07-24T07:52:31;5.40;;;4.90;;
9860;SDS011;4969;52.304;4.968;2022-07-24T07:54:58;5.53;;;4.47;;
9860;SDS011;4969;52.304;4.968;2022-07-24T07:57:25;5.63;;;5.07;;
9860;SDS011;4969;52.304;4.968;2022-07-24T07:59:52;7.25;;;5.03;;
9860;SDS011;4969;52.304;4.968;2022-07-24T08:02:18;10.95;;;6.32;;
9860;SDS011;4969;52.304;4.968;2022-07-24T08:04:45;11.93;;;8.45;;
9860;SDS011;4969;52.304;4.968;2022-07-24T08:07:11;14.95;;;7.28;;
9860;SDS011;4969;52.304;4.968;2022-07-24T08:09:38;6.63;;;4.35;;
9860;SDS011;4969;52.304;4.968;2022-07-24T08:12:06;7.78;;;4.63;;
9860;SDS011;4969;52.304;4.968;2022-07-24T08:14:33;4.68;;;3.70;;
9860;SDS011;4969;52.304;4.968;2022-07-24T08:17:00;7.40;;;6.50;;
9860;SDS011;4969;52.304;4.968;2022-07-24T08:19:26;10.75;;;7.43;;
9860;SDS011;4969;52.304;4.968;2022-07-24T08:21:53;7.15;;;5.35;;
9860;SDS011;4969;52.304;4.968;2022-07-24T08:24:19;10.40;;;7.30;;
9860;SDS011;4969;52.304;4.968;2022-07-24T08:26:46;4.30;;;3.97;;
9860;SDS011;4969;52.304;4.968;2022-07-24T08:29:14;9.75;;;8.75;;
9860;SDS011;4969;52.304;4.968;2022-07-24T08:31:41;5.85;;;5.25;;
9860;SDS011;4969;52.304;4.968;2022-07-24T08:34:08;4.72;;;4.05;;
9860;SDS011;4969;52.304;4.968;2022-07-24T08:36:35;13.40;;;9.63;;
9860;SDS011;4969;52.304;4.968;2022-07-24T08:39:02;15.93;;;14.23;;
9860;SDS011;4969;52.304;4.968;2022-07-24T08:41:29;8.25;;;6.55;;
9860;SDS011;4969;52.304;4.968;2022-07-24T08:43:57;14.73;;;13.20;;
9860;SDS011;4969;52.304;4.968;2022-07-24T08:46:25;8.68;;;7.57;;
9860;SDS011;4969;52.304;4.968;2022-07-24T08:48:53;20.60;;;17.88;;
9860;SDS011;4969;52.304;4.968;2022-07-24T08:51:20;16.58;;;11.77;;
9860;SDS011;4969;52.304;4.968;2022-07-24T08:53:47;13.20;;;10.43;;
9860;SDS011;4969;52.304;4.968;2022-07-24T08:56:15;17.88;;;14.73;;
9860;SDS011;4969;52.304;4.968;2022-07-24T08:58:42;16.50;;;14.73;;
9860;SDS011;4969;52.304;4.968;2022-07-24T09:01:09;11.43;;;10.32;;
9860;SDS011;4969;52.304;4.968;2022-07-24T09:03:40;11.75;;;10.40;;
9860;SDS011;4969;52.304;4.968;2022-07-24T09:06:09;7.53;;;6.82;;
9860;SDS011;4969;52.304;4.968;2022-07-24T09:08:37;17.05;;;15.30;;
9860;SDS011;4969;52.304;4.968;2022-07-24T09:11:04;11.77;;;10.57;;
9860;SDS011;4969;52.304;4.968;2022-07-24T09:13:33;12.73;;;11.55;;
9860;SDS011;4969;52.304;4.968;2022-07-24T09:16:16;11.63;;;9.50;;
9860;SDS011;4969;52.304;4.968;2022-07-24T09:18:49;9.93;;;8.88;;
9860;SDS011;4969;52.304;4.968;2022-07-24T09:21:17;5.18;;;4.70;;
9860;SDS011;4969;52.304;4.968;2022-07-24T09:23:44;4.00;;;3.53;;
9860;SDS011;4969;52.304;4.968;2022-07-24T09:26:13;7.00;;;4.85;;
9860;SDS011;4969;52.304;4.968;2022-07-24T09:28:50;8.02;;;7.28;;
9860;SDS011;4969;52.304;4.968;2022-07-24T09:31:19;7.03;;;5.95;;
9860;SDS011;4969;52.304;4.968;2022-07-24T09:33:49;2.80;;;2.60;;
9860;SDS011;4969;52.304;4.968;2022-07-24T09:36:17;4.78;;;4.38;;
9860;SDS011;4969;52.304;4.968;2022-07-24T09:38:46;3.92;;;3.63;;
9860;SDS011;4969;52.304;4.968;2022-07-24T09:41:18;5.47;;;4.00;;
9860;SDS011;4969;52.304;4.968;2022-07-24T09:43:46;5.28;;;4.78;;
9860;SDS011;4969;52.304;4.968;2022-07-24T09:46:22;3.50;;;3.20;;
9860;SDS011;4969;52.304;4.968;2022-07-24T09:48:53;6.50;;;5.35;;
9860;SDS011;4969;52.304;4.968;2022-07-24T09:51:22;8.70;;;7.90;;
9860;SDS011;4969;52.304;4.968;2022-07-24T09:53:52;4.78;;;4.05;;
9860;SDS011;4969;52.304;4.968;2022-07-24T09:56:19;4.40;;;4.03;;
9860;SDS011;4969;52.304;4.968;2022-07-24T09:58:47;4.38;;;3.97;;
9860;SDS011;4969;52.304;4.968;2022-07-24T10:01:16;3.50;;;2.90;;
9860;SDS011;4969;52.304;4.968;2022-07-24T10:03:44;3.00;;;2.80;;
9860;SDS011;4969;52.304;4.968;2022-07-24T10:06:13;6.22;;;4.50;;
9860;SDS011;4969;52.304;4.968;2022-07-24T10:08:42;5.03;;;4.63;;
9860;SDS011;4969;52.304;4.968;2022-07-24T10:11:11;3.95;;;3.65;;
9860;SDS011;4969;52.304;4.968;2022-07-24T10:13:38;5.32;;;3.95;;
9860;SDS011;4969;52.304;4.968;2022-07-24T10:18:57;2.97;;;2.78;;
9860;SDS011;4969;52.304;4.968;2022-07-24T10:21:27;4.60;;;4.13;;
9860;SDS011;4969;52.304;4.968;2022-07-24T10:24:10;3.45;;;3.25;;
9860;SDS011;4969;52.304;4.968;2022-07-24T10:26:46;4.68;;;3.80;;
9860;SDS011;4969;52.304;4.968;2022-07-24T10:29:16;3.13;;;2.80;;
9860;SDS011;4969;52.304;4.968;2022-07-24T10:31:44;2.55;;;2.35;;
9860;SDS011;4969;52.304;4.968;2022-07-24T10:34:18;3.83;;;3.28;;
9860;SDS011;4969;52.304;4.968;2022-07-24T10:36:58;3.15;;;2.75;;
9860;SDS011;4969;52.304;4.968;2022-07-24T10:39:34;3.50;;;3.20;;
9860;SDS011;4969;52.304;4.968;2022-07-24T10:42:05;3.80;;;3.50;;
9860;SDS011;4969;52.304;4.968;2022-07-24T10:44:32;2.80;;;2.60;;
9860;SDS011;4969;52.304;4.968;2022-07-24T10:47:00;2.72;;;2.60;;
9860;SDS011;4969;52.304;4.968;2022-07-24T10:49:41;4.35;;;2.67;;
9860;SDS011;4969;52.304;4.968;2022-07-24T10:52:12;3.05;;;2.78;;
9860;SDS011;4969;52.304;4.968;2022-07-24T10:54:49;3.10;;;2.80;;
9860;SDS011;4969;52.304;4.968;2022-07-24T10:57:54;2.95;;;2.50;;
9860;SDS011;4969;52.304;4.968;2022-07-24T11:00:24;3.97;;;3.67;;
9860;SDS011;4969;52.304;4.968;2022-07-24T11:02:59;2.65;;;2.45;;
9860;SDS011;4969;52.304;4.968;2022-07-24T11:05:28;3.30;;;2.78;;
9860;SDS011;4969;52.304;4.968;2022-07-24T11:11:14;4.20;;;2.65;;
9860;SDS011;4969;52.304;4.968;2022-07-24T11:13:47;2.95;;;2.72;;
9860;SDS011;4969;52.304;4.968;2022-07-24T11:16:19;3.10;;;2.80;;
9860;SDS011;4969;52.304;4.968;2022-07-24T11:22:09;2.90;;;2.65;;
9860;SDS011;4969;52.304;4.968;2022-07-24T11:24:41;2.88;;;2.50;;
9860;SDS011;4969;52.304;4.968;2022-07-24T11:27:29;2.58;;;2.38;;
9860;SDS011;4969;52.304;4.968;2022-07-24T11:30:09;3.28;;;2.95;;
9860;SDS011;4969;52.304;4.968;2022-07-24T11:32:39;4.40;;;3.40;;
9860;SDS011;4969;52.304;4.968;2022-07-24T11:35:07;3.35;;;3.13;;
9860;SDS011;4969;52.304;4.968;2022-07-24T11:37:38;2.38;;;2.28;;
9860;SDS011;4969;52.304;4.968;2022-07-24T11:40:08;3.67;;;2.38;;
9860;SDS011;4969;52.304;4.968;2022-07-24T11:42:39;3.50;;;2.50;;
9860;SDS011;4969;52.304;4.968;2022-07-24T11:45:06;4.20;;;2.80;;
9860;SDS011;4969;52.304;4.968;2022-07-24T11:47:37;2.90;;;2.70;;
9860;SDS011;4969;52.304;4.968;2022-07-24T11:50:05;2.70;;;2.50;;
9860;SDS011;4969;52.304;4.968;2022-07-24T11:52:34;2.67;;;2.47;;
9860;SDS011;4969;52.304;4.968;2022-07-24T11:55:03;2.90;;;2.25;;
9860;SDS011;4969;52.304;4.968;2022-07-24T11:57:34;2.75;;;2.13;;
9860;SDS011;4969;52.304;4.968;2022-07-24T12:00:10;2.53;;;2.33;;
9860;SDS011;4969;52.304;4.968;2022-07-24T12:02:56;2.95;;;2.28;;
9860;SDS011;4969;52.304;4.968;2022-07-24T12:05:30;4.15;;;2.40;;
9860;SDS011;4969;52.304;4.968;2022-07-24T12:07:59;2.63;;;2.45;;
9860;SDS011;4969;52.304;4.968;2022-07-24T12:10:28;2.75;;;2.50;;
9860;SDS011;4969;52.304;4.968;2022-07-24T12:12:56;2.90;;;2.70;;
9860;SDS011;4969;52.304;4.968;2022-07-24T12:15:27;2.50;;;2.30;;
9860;SDS011;4969;52.304;4.968;2022-07-24T12:17:55;3.60;;;2.80;;
9860;SDS011;4969;52.304;4.968;2022-07-24T12:20:24;2.58;;;2.38;;
9860;SDS011;4969;52.304;4.968;2022-07-24T12:22:54;2.53;;;2.40;;
9860;SDS011;4969;52.304;4.968;2022-07-24T12:25:27;8.00;;;3.17;;
9860;SDS011;4969;52.304;4.968;2022-07-24T12:28:02;5.40;;;3.20;;
9860;SDS011;4969;52.304;4.968;2022-07-24T12:30:31;5.28;;;4.03;;
9860;SDS011;4969;52.304;4.968;2022-07-24T12:33:01;2.80;;;2.60;;
9860;SDS011;4969;52.304;4.968;2022-07-24T12:35:30;5.38;;;4.72;;
9860;SDS011;4969;52.304;4.968;2022-07-24T12:38:00;6.28;;;5.65;;
9860;SDS011;4969;52.304;4.968;2022-07-24T12:40:32;9.75;;;8.77;;
9860;SDS011;4969;52.304;4.968;2022-07-24T12:43:06;5.05;;;4.53;;
9860;SDS011;4969;52.304;4.968;2022-07-24T12:45:35;6.07;;;5.05;;
9860;SDS011;4969;52.304;4.968;2022-07-24T12:50:59;12.40;;;10.43;;
9860;SDS011;4969;52.304;4.968;2022-07-24T12:53:35;7.95;;;7.10;;
9860;SDS011;4969;52.304;4.968;2022-07-24T12:56:07;4.47;;;4.13;;
9860;SDS011;4969;52.304;4.968;2022-07-24T13:01:26;7.63;;;6.75;;
9860;SDS011;4969;52.304;4.968;2022-07-24T13:03:58;7.45;;;6.78;;
9860;SDS011;4969;52.304;4.968;2022-07-24T13:06:33;7.60;;;6.20;;
9860;SDS011;4969;52.304;4.968;2022-07-24T13:09:01;9.43;;;8.20;;
9860;SDS011;4969;52.304;4.968;2022-07-24T13:11:29;9.82;;;8.82;;
9860;SDS011;4969;52.304;4.968;2022-07-24T13:13:57;5.38;;;4.88;;
9860;SDS011;4969;52.304;4.968;2022-07-24T13:16:26;8.27;;;7.43;;
9860;SDS011;4969;52.304;4.968;2022-07-24T13:18:59;6.78;;;6.10;;
9860;SDS011;4969;52.304;4.968;2022-07-24T13:21:38;11.15;;;10.00;;
9860;SDS011;4969;52.304;4.968;2022-07-24T13:24:06;11.95;;;10.82;;
9860;SDS011;4969;52.304;4.968;2022-07-24T13:26:34;14.32;;;12.43;;
9860;SDS011;4969;52.304;4.968;2022-07-24T13:29:06;5.30;;;4.88;;
9860;SDS011;4969;52.304;4.968;2022-07-24T13:31:33;11.35;;;10.25;;
9860;SDS011;4969;52.304;4.968;2022-07-24T13:34:03;15.98;;;14.25;;
9860;SDS011;4969;52.304;4.968;2022-07-24T13:36:31;15.38;;;13.82;;
9860;SDS011;4969;52.304;4.968;2022-07-24T13:38:58;13.70;;;12.40;;
9860;SDS011;4969;52.304;4.968;2022-07-24T13:41:25;6.35;;;5.80;;
9860;SDS011;4969;52.304;4.968;2022-07-24T13:43:52;10.30;;;8.38;;
9860;SDS011;4969;52.304;4.968;2022-07-24T13:46:20;15.48;;;14.07;;
9860;SDS011;4969;52.304;4.968;2022-07-24T13:48:49;11.20;;;9.50;;
9860;SDS011;4969;52.304;4.968;2022-07-24T13:51:23;12.52;;;11.25;;
9860;SDS011;4969;52.304;4.968;2022-07-24T13:53:50;12.35;;;11.07;;
9860;SDS011;4969;52.304;4.968;2022-07-24T13:56:16;12.93;;;11.75;;
9860;SDS011;4969;52.304;4.968;2022-07-24T13:58:43;11.80;;;10.48;;
9860;SDS011;4969;52.304;4.968;2022-07-24T14:01:10;16.75;;;15.07;;
9860;SDS011;4969;52.304;4.968;2022-07-24T14:03:39;13.82;;;12.52;;
9860;SDS011;4969;52.304;4.968;2022-07-24T14:06:07;17.05;;;15.32;;
9860;SDS011;4969;52.304;4.968;2022-07-24T14:08:34;19.02;;;17.20;;
9860;SDS011;4969;52.304;4.968;2022-07-24T14:11:01;8.95;;;7.95;;
9860;SDS011;4969;52.304;4.968;2022-07-24T14:13:28;16.80;;;15.07;;
9860;SDS011;4969;52.304;4.968;2022-07-24T14:15:54;15.70;;;14.10;;
9860;SDS011;4969;52.304;4.968;2022-07-24T14:18:21;13.57;;;12.27;;
9860;SDS011;4969;52.304;4.968;2022-07-24T14:20:49;13.63;;;12.40;;
9860;SDS011;4969;52.304;4.968;2022-07-24T14:23:18;8.93;;;8.02;;
9860;SDS011;4969;52.304;4.968;2022-07-24T14:25:44;11.30;;;10.20;;
9860;SDS011;4969;52.304;4.968;2022-07-24T14:28:11;27.27;;;23.60;;
9860;SDS011;4969;52.304;4.968;2022-07-24T14:30:38;24.50;;;22.17;;
9860;SDS011;4969;52.304;4.968;2022-07-24T14:33:07;29.48;;;26.52;;
9860;SDS011;4969;52.304;4.968;2022-07-24T14:35:34;22.00;;;19.90;;
9860;SDS011;4969;52.304;4.968;2022-07-24T14:38:02;13.35;;;12.07;;
9860;SDS011;4969;52.304;4.968;2022-07-24T14:40:29;20.48;;;18.38;;
9860;SDS011;4969;52.304;4.968;2022-07-24T14:42:55;16.58;;;15.05;;
9860;SDS011;4969;52.304;4.968;2022-07-24T14:45:22;13.52;;;12.25;;
9860;SDS011;4969;52.304;4.968;2022-07-24T14:47:49;28.13;;;25.40;;
9860;SDS011;4969;52.304;4.968;2022-07-24T14:50:15;21.15;;;19.20;;
9860;SDS011;4969;52.304;4.968;2022-07-24T14:52:42;8.07;;;7.25;;
9860;SDS011;4969;52.304;4.968;2022-07-24T14:55:10;5.07;;;4.60;;
9860;SDS011;4969;52.304;4.968;2022-07-24T14:57:36;23.60;;;21.27;;
9860;SDS011;4969;52.304;4.968;2022-07-24T15:00:03;20.90;;;18.70;;
9860;SDS011;4969;52.304;4.968;2022-07-24T15:02:31;4.35;;;3.95;;
9860;SDS011;4969;52.304;4.968;2022-07-24T15:04:58;12.57;;;11.30;;
9860;SDS011;4969;52.304;4.968;2022-07-24T15:07:25;22.10;;;19.88;;
9860;SDS011;4969;52.304;4.968;2022-07-24T15:09:51;28.23;;;25.17;;
9860;SDS011;4969;52.304;4.968;2022-07-24T15:12:19;20.15;;;14.02;;
9860;SDS011;4969;52.304;4.968;2022-07-24T15:14:46;14.10;;;12.60;;
9860;SDS011;4969;52.304;4.968;2022-07-24T15:17:12;25.42;;;22.70;;
9860;SDS011;4969;52.304;4.968;2022-07-24T15:19:39;26.73;;;23.83;;
9860;SDS011;4969;52.304;4.968;2022-07-24T15:22:05;7.18;;;6.47;;